Friday, July 25, 2014
18:23 UTC
  |  Log In   |  Register Free
Airport Search:

Live Oak County Airport
(8T6)

Live Oak County Airport Diagram
No Airport Diagram Available

FAA data valid effective July 24, 2014 until September 18, 2014 (unless otherwise noted).

 
 
 
 
 
 
 
 
 
 
 
 
 
 

Current Aviation Weather for Live Oak County Airport (8T6)

The most recent METAR observation for KBEA was updated at: 1735 UTC
METAR Summary (Translated METAR)
KBEA
251735Z AUTO 15008KT 10SM SCT055 36/19 A3000 RMK AO2 T03570185
KRBO
(35.4 nm SE from KBEA)
251735Z AUTO 18006KT 10SM SCT047 SCT055 SCT070 35/21 A2999 RMK AO2 T03490211
TAF Summary (Translated TAF)
KCRP
(38.7 nm SE from KBEA)
251727Z 2518/2618 15012KT P6SM VCTS SCT035CB BKN250 FM252100 15015G21KT P6SM SCT040 BKN250 FM260200 17007KT P6SM FEW015 FM261500 18013KT P6SM SCT025
  Airport Weather Conditions for 8T6

Current weather conditions are
not available for 8T6


The nearest NOAA weather station
is at BEA, (17.2 nm SE from 8T6)
  
 Current Weather at BEA
97° F
Partly Cloudy
South winds at 5.8 mph
BEA NOAA Radar

Pressure: 29.99 in
Humidity: 36%
Wind: South at 5.8 MPH (5 KT)
Dew Point: 65.1°F
Visibility: 10.00 mi


Airport Weather Forecast for 8T6

Translated METAR and TAF for KBEA
Translated METAR for KBEA (1816 UTC 25 July 2014)
found at http://aviationweather.gov/adds/metars/
 
METAR text: KBEA 251755Z AUTO 16005KT 10SM SCT055 36/18 A2999 RMK AO2 T03590184 10363 20232
Conditions at: KBEA (BEEVILLE MUNI , TX, US) observed 1755 UTC 25 July 2014
Temperature: 35.9°C (97°F)
Dewpoint: 18.4°C (65°F) [RH = 36%]
Pressure (altimeter): 29.99 inches Hg (1015.7 mb)
Winds: from the SSE (160 degrees) at 6 MPH (5 knots; 2.6 m/s)
Visibility: 10 or more miles (16+ km)
Ceiling: at least 12,000 feet AGL
Clouds: scattered clouds at 5500 feet AGL
Weather: automated observation with no human augmentation;
there may or may not be significant weather present at this time
Translated TAF for KBEA

There is no translated TAF available for this airport

Find All Airport Services Find A Hotel Find A Rental Car Find A Golf Course Find A Restaurant $100 Hamburger



FBO's on the Field
FBO Company Facility Photos Services Transportation Aviation Fuel Prices: Prices include tax
Catering Weather Repair Courtesy Rental Type 100LL JetA JetA+ MOGAS 8087
 
Live Oak Co. Airport

This FBO has not yet been rated
FS:Avfuel
Last Updated: Jul-18
Login to update fuel prices
SS:
Contact Live Oak Co. AirportMore FBO Information
 
Add another FBO Facility Photos Catering Weather Repair Courtesy Rental Type 100LL JetA JetA+ MOGAS 8087
Services Transportation Aviation Fuel Prices: Prices include tax


GlobalAir.com Airport Resource Center model-print
model-print
model-print
model-print